createdAt,value
2023-04-02T00:01:37.204Z,65.27
2023-04-02T00:05:56.242Z,64.52
2023-04-02T00:10:40.041Z,63.91
2023-04-02T00:14:55.206Z,64.94
2023-04-02T00:19:17.335Z,65.13
2023-04-02T00:23:29.682Z,65.95
2023-04-02T00:27:43.232Z,65.91
2023-04-02T00:31:59.404Z,66.08
2023-04-02T00:36:13.501Z,66.32
2023-04-02T00:40:32.293Z,67.21
2023-04-02T00:44:47.099Z,67.19
2023-04-02T00:49:23.962Z,68.60
2023-04-02T00:53:37.199Z,68.44
2023-04-02T00:57:51.407Z,69.98
2023-04-02T01:02:17.723Z,71.53
2023-04-02T01:06:37.754Z,72.10
2023-04-02T01:11:03.975Z,72.81
2023-04-02T01:15:24.656Z,73.06
2023-04-02T01:19:49.361Z,72.54
2023-04-02T01:24:05.910Z,72.63
2023-04-02T01:28:51.822Z,72.97
2023-04-02T01:33:05.930Z,70.76
2023-04-02T01:37:29.107Z,66.74
2023-04-02T01:41:54.485Z,65.69
2023-04-02T01:46:34.654Z,66.72
2023-04-02T01:50:50.241Z,66.22
2023-04-02T01:55:03.971Z,65.48
2023-04-02T01:59:20.409Z,65.06
2023-04-02T02:03:44.058Z,64.74
2023-04-02T02:07:58.971Z,65.86
2023-04-02T02:12:15.721Z,65.53
2023-04-02T02:16:30.627Z,65.74
2023-04-02T02:20:43.235Z,64.98
2023-04-02T02:24:57.913Z,65.03
2023-04-02T02:29:16.113Z,65.56
2023-04-02T02:33:37.576Z,66.16
2023-04-02T02:38:06.744Z,65.10
2023-04-02T02:42:40.041Z,69.72
2023-04-02T02:47:17.680Z,71.75
2023-04-02T02:51:47.508Z,73.13
2023-04-02T02:56:04.945Z,75.22
2023-04-02T03:00:25.007Z,76.95
2023-04-02T03:04:39.374Z,77.11
2023-04-02T03:09:13.766Z,78.10
2023-04-02T03:13:35.734Z,79.09
2023-04-02T03:18:00.785Z,78.94
2023-04-02T03:23:17.944Z,78.46
2023-04-02T03:27:41.003Z,79.21
2023-04-02T03:32:36.813Z,79.74
2023-04-02T03:37:02.514Z,79.49
2023-04-02T03:41:32.424Z,80.32
2023-04-02T03:45:52.041Z,80.94
2023-04-02T03:50:26.016Z,80.57
2023-04-02T03:54:54.163Z,80.78
2023-04-02T03:59:16.579Z,81.02
2023-04-02T04:03:31.603Z,81.61
2023-04-02T04:07:45.521Z,81.83
2023-04-02T04:12:10.785Z,84.22
2023-04-02T04:16:30.335Z,84.35
2023-04-02T04:20:50.808Z,84.49
2023-04-02T04:25:08.063Z,85.08
2023-04-02T04:29:40.967Z,84.95
2023-04-02T04:34:03.369Z,84.93
2023-04-02T04:38:28.514Z,85.31
2023-04-02T04:42:45.111Z,86.62
2023-04-02T04:47:20.831Z,84.21
2023-04-02T04:51:58.939Z,84.98
2023-04-02T04:56:19.306Z,86.33
2023-04-02T05:01:00.848Z,86.29
2023-04-02T05:05:25.922Z,86.90
2023-04-02T05:09:54.387Z,88.32
2023-04-02T05:14:41.248Z,89.04
2023-04-02T05:19:07.057Z,89.71
2023-04-02T05:23:30.051Z,90.68
2023-04-02T05:27:53.457Z,91.39
2023-04-02T05:32:25.272Z,91.18
2023-04-02T05:36:38.694Z,91.73
2023-04-02T05:41:08.622Z,91.84
2023-04-02T05:45:44.567Z,91.23
2023-04-02T05:50:17.369Z,91.56
2023-04-02T05:54:43.881Z,91.87
2023-04-02T05:58:59.571Z,91.83
2023-04-02T06:04:07.398Z,91.92
2023-04-02T06:08:26.947Z,91.59
2023-04-02T06:12:54.951Z,90.49
2023-04-02T06:17:07.719Z,90.10
2023-04-02T06:21:22.661Z,88.43
2023-04-02T06:25:43.933Z,88.50
2023-04-02T06:30:03.174Z,86.11
2023-04-02T06:34:19.733Z,83.42
2023-04-02T06:38:42.515Z,82.73
2023-04-02T06:43:00.113Z,81.62
2023-04-02T06:47:45.155Z,80.51
2023-04-02T06:52:06.664Z,79.27
2023-04-02T06:56:37.688Z,79.17
2023-04-02T07:00:51.657Z,77.89
2023-04-02T07:05:13.183Z,77.20
2023-04-02T07:09:31.381Z,76.58
2023-04-02T07:13:46.606Z,74.73
2023-04-02T07:17:59.847Z,71.03
2023-04-02T07:22:13.924Z,70.27
2023-04-02T07:26:29.434Z,66.86
2023-04-02T07:30:43.643Z,65.35
2023-04-02T07:34:56.100Z,63.88
2023-04-02T07:39:08.533Z,63.08
2023-04-02T07:43:22.155Z,61.46
2023-04-02T07:47:34.557Z,60.10
2023-04-02T07:51:47.762Z,58.55
2023-04-02T07:56:02.310Z,57.56
2023-04-02T08:00:16.010Z,54.58
2023-04-02T08:04:28.581Z,54.41
2023-04-02T08:08:41.461Z,53.85
2023-04-02T08:12:53.820Z,52.84
2023-04-02T08:17:06.564Z,50.90
2023-04-02T08:21:18.992Z,49.81
2023-04-02T08:25:31.754Z,49.40
2023-04-02T08:29:44.225Z,48.03
2023-04-02T08:33:57.267Z,48.19
2023-04-02T08:38:14.848Z,46.64
2023-04-02T08:42:32.609Z,46.21
2023-04-02T08:46:48.084Z,44.09
2023-04-02T08:51:02.457Z,45.45
2023-04-02T08:55:30.280Z,44.62
2023-04-02T08:59:44.800Z,44.63
2023-04-02T09:03:59.591Z,42.72
2023-04-02T09:08:24.871Z,41.96
2023-04-02T09:12:37.264Z,41.97
2023-04-02T09:16:56.848Z,38.88
2023-04-02T09:21:21.278Z,38.10
2023-04-02T09:25:34.229Z,38.38
2023-04-02T09:29:49.753Z,36.83
2023-04-02T09:34:02.942Z,38.21
2023-04-02T09:38:33.078Z,36.86
2023-04-02T09:42:45.883Z,37.41
2023-04-02T09:47:07.673Z,36.98
2023-04-02T09:51:23.198Z,40.54
2023-04-02T09:55:36.153Z,36.23
2023-04-02T09:59:48.719Z,35.42
2023-04-02T10:04:03.762Z,35.98
2023-04-02T10:08:30.472Z,34.26
2023-04-02T10:12:46.441Z,34.67
2023-04-02T10:17:08.796Z,34.31
2023-04-02T10:21:27.651Z,33.19
2023-04-02T10:25:47.261Z,34.63
2023-04-02T10:30:25.935Z,35.80
2023-04-02T10:35:02.568Z,35.75
2023-04-02T10:39:33.500Z,38.15
2023-04-02T10:44:09.585Z,37.82
2023-04-02T10:48:36.402Z,37.02
2023-04-02T10:53:03.295Z,35.44
2023-04-02T10:57:37.374Z,38.45
2023-04-02T11:01:51.971Z,36.44
2023-04-02T11:06:14.773Z,33.53
2023-04-02T11:10:32.260Z,32.67
2023-04-02T11:14:44.607Z,32.72
2023-04-02T11:19:25.642Z,30.63
2023-04-02T11:24:02.547Z,29.86
2023-04-02T11:28:21.115Z,30.07
2023-04-02T11:32:43.253Z,31.89
2023-04-02T11:36:56.591Z,32.93
2023-04-02T11:41:09.293Z,31.42
2023-04-02T11:45:21.666Z,32.29
2023-04-02T11:49:40.298Z,29.77
2023-04-02T11:53:54.643Z,25.70
2023-04-02T11:58:25.669Z,26.81
2023-04-02T12:03:03.757Z,27.74
2023-04-02T12:07:52.551Z,28.04
2023-04-02T12:12:25.744Z,32.65
2023-04-02T12:16:38.406Z,32.26
2023-04-02T12:20:56.682Z,31.00
2023-04-02T12:25:22.084Z,32.25
2023-04-02T12:29:34.630Z,30.68
2023-04-02T12:33:47.124Z,34.36
2023-04-02T12:37:59.814Z,39.41
2023-04-02T12:42:36.619Z,41.51
2023-04-02T12:46:50.277Z,40.46
2023-04-02T12:51:04.560Z,39.54
2023-04-02T12:55:25.804Z,38.76
2023-04-02T12:59:39.342Z,39.33
2023-04-02T13:04:15.474Z,37.17
2023-04-02T13:08:43.051Z,37.63
2023-04-02T13:13:01.307Z,38.56
2023-04-02T13:17:46.958Z,37.04
2023-04-02T13:22:02.021Z,37.42
2023-04-02T13:26:25.065Z,38.81
2023-04-02T13:30:37.694Z,39.16
2023-04-02T13:34:50.218Z,40.97
2023-04-02T13:39:02.676Z,40.97
2023-04-02T13:43:20.569Z,40.32
2023-04-02T13:47:32.945Z,39.69
2023-04-02T13:52:00.174Z,39.77
2023-04-02T13:56:15.712Z,40.73
2023-04-02T14:00:28.084Z,41.69
2023-04-02T14:04:46.627Z,42.10
2023-04-02T14:09:05.316Z,43.27
2023-04-02T14:13:53.237Z,46.74
2023-04-02T14:18:14.536Z,45.78
2023-04-02T14:22:37.616Z,45.95
2023-04-02T14:27:00.158Z,46.15
2023-04-02T14:31:45.072Z,46.77
2023-04-02T14:36:09.674Z,46.34
2023-04-02T14:40:47.033Z,46.25
2023-04-02T14:45:12.951Z,46.02
2023-04-02T14:49:42.044Z,46.78
2023-04-02T14:54:12.746Z,47.33
2023-04-02T14:58:34.259Z,47.20
2023-04-02T15:02:49.495Z,48.86
2023-04-02T15:07:19.154Z,48.60
2023-04-02T15:11:43.698Z,47.95
2023-04-02T15:16:06.463Z,48.25
2023-04-02T15:20:20.906Z,47.83
2023-04-02T15:24:47.998Z,46.68
2023-04-02T15:29:38.833Z,47.15
2023-04-02T15:34:12.523Z,46.89
2023-04-02T15:38:44.238Z,47.38
2023-04-02T15:43:13.408Z,48.50
2023-04-02T15:47:37.488Z,49.44
2023-04-02T15:52:06.036Z,50.08
2023-04-02T15:56:36.708Z,50.44
2023-04-02T16:01:17.649Z,49.70
2023-04-02T16:06:20.829Z,51.71
2023-04-02T16:10:42.865Z,52.53
2023-04-02T16:15:06.310Z,52.35
2023-04-02T16:19:44.350Z,52.36
2023-04-02T16:23:57.245Z,52.70
2023-04-02T16:28:24.341Z,52.79
2023-04-02T16:33:02.949Z,52.49
2023-04-02T16:37:42.944Z,52.09
2023-04-02T16:42:03.129Z,52.75
2023-04-02T16:46:38.345Z,53.11
2023-04-02T16:51:18.188Z,55.35
2023-04-02T16:56:04.509Z,56.31
2023-04-02T17:00:26.510Z,57.03
2023-04-02T17:04:59.358Z,57.64
2023-04-02T17:09:16.233Z,58.45
2023-04-02T17:13:34.582Z,59.18
2023-04-02T17:17:47.099Z,59.21
2023-04-02T17:22:02.961Z,59.80
2023-04-02T17:26:18.510Z,60.20
2023-04-02T17:30:46.284Z,60.64
2023-04-02T17:35:33.531Z,61.93
2023-04-02T17:40:04.382Z,61.60
2023-04-02T17:44:43.141Z,61.53
2023-04-02T17:49:07.969Z,60.78
2023-04-02T17:53:48.921Z,60.24
2023-04-02T17:58:21.276Z,61.09
2023-04-02T18:03:01.767Z,60.46
2023-04-02T18:07:22.717Z,60.83
2023-04-02T18:12:10.419Z,61.15
2023-04-02T18:16:44.633Z,61.82
2023-04-02T18:21:27.666Z,60.37
2023-04-02T18:25:44.083Z,59.26
2023-04-02T18:30:31.450Z,60.01
2023-04-02T18:34:56.384Z,60.31
2023-04-02T18:39:22.488Z,60.43
2023-04-02T18:44:02.759Z,60.62
2023-04-02T18:48:37.422Z,63.39
2023-04-02T18:52:51.261Z,66.36
2023-04-02T18:57:12.003Z,66.42
2023-04-02T19:06:27.391Z,69.85
2023-04-02T19:10:44.459Z,71.08
2023-04-02T19:14:59.926Z,71.82
2023-04-02T19:19:20.040Z,72.35
2023-04-02T19:24:01.090Z,73.10
2023-04-02T19:28:30.804Z,73.59
2023-04-02T19:33:15.563Z,74.35
2023-04-02T19:37:27.898Z,74.25
2023-04-02T19:41:49.927Z,74.24
2023-04-02T19:46:02.989Z,74.28
2023-04-02T19:50:15.661Z,74.76
2023-04-02T19:54:28.196Z,74.65
2023-04-02T19:58:40.786Z,74.66
2023-04-02T20:02:53.513Z,75.09
2023-04-02T20:07:06.013Z,75.43
2023-04-02T20:11:18.628Z,75.80
2023-04-02T20:15:31.072Z,76.56
2023-04-02T20:19:43.542Z,76.51
2023-04-02T20:23:56.886Z,75.00
2023-04-02T20:28:09.341Z,73.46
2023-04-02T20:32:22.026Z,72.74
2023-04-02T20:36:34.773Z,72.97
2023-04-02T20:40:53.080Z,72.61
2023-04-02T20:45:06.557Z,74.02
2023-04-02T20:49:19.060Z,74.75
2023-04-02T20:53:34.687Z,76.46
2023-04-02T20:57:47.810Z,76.43
2023-04-02T21:02:00.213Z,76.36
2023-04-02T21:06:15.157Z,75.80
2023-04-02T21:10:27.681Z,75.29
2023-04-02T21:14:40.508Z,74.66
2023-04-02T21:18:53.482Z,73.36
2023-04-02T21:23:05.917Z,73.84
2023-04-02T21:27:18.335Z,73.51
2023-04-02T21:31:35.125Z,73.54
2023-04-02T21:35:47.747Z,73.77
2023-04-02T21:40:00.197Z,75.13
2023-04-02T21:44:16.928Z,74.37
2023-04-02T21:48:32.544Z,73.77
2023-04-02T21:52:46.187Z,74.60
2023-04-02T21:56:59.627Z,74.19
2023-04-02T22:01:26.060Z,73.76
2023-04-02T22:05:39.939Z,73.23
2023-04-02T22:09:53.686Z,74.45
2023-04-02T22:14:06.228Z,74.56
2023-04-02T22:18:18.572Z,73.97
2023-04-02T22:22:32.168Z,74.17
2023-04-02T22:26:45.607Z,74.98
2023-04-02T22:31:05.021Z,74.56
2023-04-02T22:35:17.596Z,75.02
2023-04-02T22:39:30.109Z,74.57
2023-04-02T22:43:46.700Z,74.75
2023-04-02T22:47:59.136Z,75.02
2023-04-02T22:52:11.591Z,75.26
2023-04-02T22:56:33.065Z,76.12
2023-04-02T23:00:46.676Z,76.59
2023-04-02T23:04:59.092Z,74.95
2023-04-02T23:09:11.656Z,75.07
2023-04-02T23:13:24.127Z,75.31
2023-04-02T23:17:37.895Z,75.86
2023-04-02T23:21:50.453Z,76.58
2023-04-02T23:26:11.634Z,75.56
2023-04-02T23:30:24.123Z,75.79
2023-04-02T23:34:45.113Z,76.00
2023-04-02T23:39:11.064Z,75.90
2023-04-02T23:43:23.444Z,76.33
2023-04-02T23:47:35.941Z,76.12
2023-04-02T23:51:48.414Z,76.10
2023-04-02T23:56:00.908Z,74.42
